sensor_id;sensor_type;location;lat;lon;timestamp;pressure;altitude;pressure_sealevel;temperature;humidity
25084;BME280;13075;55.682;37.564;2023-05-21T00:01:16;100151.50;;;20.31;100.00
25084;BME280;13075;55.682;37.564;2023-05-21T00:03:42;100148.97;;;20.25;100.00
25084;BME280;13075;55.682;37.564;2023-05-21T00:06:10;100149.19;;;20.40;100.00
25084;BME280;13075;55.682;37.564;2023-05-21T00:08:37;100145.34;;;20.36;100.00
25084;BME280;13075;55.682;37.564;2023-05-21T00:11:03;100143.75;;;20.40;100.00
25084;BME280;13075;55.682;37.564;2023-05-21T00:13:28;100140.16;;;20.34;100.00
25084;BME280;13075;55.682;37.564;2023-05-21T00:15:54;100128.38;;;20.29;100.00
25084;BME280;13075;55.682;37.564;2023-05-21T00:18:19;100138.19;;;20.30;100.00
25084;BME280;13075;55.682;37.564;2023-05-21T00:20:46;100134.63;;;20.46;100.00
25084;BME280;13075;55.682;37.564;2023-05-21T00:23:12;100138.66;;;20.43;100.00
25084;BME280;13075;55.682;37.564;2023-05-21T00:25:37;100135.88;;;20.38;100.00
25084;BME280;13075;55.682;37.564;2023-05-21T00:28:03;100131.00;;;20.24;100.00
25084;BME280;13075;55.682;37.564;2023-05-21T00:30:28;100136.66;;;20.22;100.00
25084;BME280;13075;55.682;37.564;2023-05-21T00:32:54;100124.56;;;20.13;100.00
25084;BME280;13075;55.682;37.564;2023-05-21T00:35:19;100126.31;;;20.36;100.00
25084;BME280;13075;55.682;37.564;2023-05-21T00:37:45;100124.25;;;20.26;100.00
25084;BME280;13075;55.682;37.564;2023-05-21T00:40:11;100118.59;;;20.28;100.00
25084;BME280;13075;55.682;37.564;2023-05-21T00:42:37;100113.66;;;20.25;100.00
25084;BME280;13075;55.682;37.564;2023-05-21T00:45:03;100123.00;;;20.34;100.00
25084;BME280;13075;55.682;37.564;2023-05-21T00:47:29;100116.09;;;20.43;100.00
25084;BME280;13075;55.682;37.564;2023-05-21T00:49:55;100114.06;;;20.55;100.00
25084;BME280;13075;55.682;37.564;2023-05-21T00:52:20;100115.94;;;20.33;100.00
25084;BME280;13075;55.682;37.564;2023-05-21T00:54:50;100118.72;;;20.38;100.00
25084;BME280;13075;55.682;37.564;2023-05-21T00:57:16;100125.41;;;20.30;100.00
25084;BME280;13075;55.682;37.564;2023-05-21T00:59:45;100117.00;;;20.32;100.00
25084;BME280;13075;55.682;37.564;2023-05-21T01:02:11;100129.28;;;20.34;100.00
25084;BME280;13075;55.682;37.564;2023-05-21T01:04:38;100122.22;;;20.33;100.00
25084;BME280;13075;55.682;37.564;2023-05-21T01:07:03;100121.59;;;20.31;100.00
25084;BME280;13075;55.682;37.564;2023-05-21T01:09:30;100124.66;;;20.35;100.00
25084;BME280;13075;55.682;37.564;2023-05-21T01:11:56;100123.91;;;20.39;100.00
25084;BME280;13075;55.682;37.564;2023-05-21T01:14:22;100124.41;;;20.36;100.00
25084;BME280;13075;55.682;37.564;2023-05-21T01:16:48;100119.22;;;20.35;100.00
25084;BME280;13075;55.682;37.564;2023-05-21T01:19:15;100122.66;;;20.14;100.00
25084;BME280;13075;55.682;37.564;2023-05-21T01:21:43;100119.63;;;20.43;100.00
25084;BME280;13075;55.682;37.564;2023-05-21T01:24:09;100125.25;;;20.20;100.00
25084;BME280;13075;55.682;37.564;2023-05-21T01:26:34;100128.03;;;20.42;100.00
25084;BME280;13075;55.682;37.564;2023-05-21T01:29:06;100122.16;;;20.50;100.00
25084;BME280;13075;55.682;37.564;2023-05-21T01:32:15;100133.22;;;20.43;100.00
25084;BME280;13075;55.682;37.564;2023-05-21T01:34:21;100125.88;;;20.11;100.00
25084;BME280;13075;55.682;37.564;2023-05-21T01:36:48;100129.84;;;20.20;100.00
25084;BME280;13075;55.682;37.564;2023-05-21T01:39:29;100129.38;;;19.89;100.00
25084;BME280;13075;55.682;37.564;2023-05-21T01:41:57;100134.63;;;19.79;100.00
25084;BME280;13075;55.682;37.564;2023-05-21T01:44:23;100130.09;;;20.02;100.00
25084;BME280;13075;55.682;37.564;2023-05-21T01:46:49;100128.84;;;19.76;100.00
25084;BME280;13075;55.682;37.564;2023-05-21T01:49:16;100125.16;;;19.37;100.00
25084;BME280;13075;55.682;37.564;2023-05-21T01:51:42;100130.91;;;19.85;100.00
25084;BME280;13075;55.682;37.564;2023-05-21T01:54:07;100114.22;;;20.10;100.00
25084;BME280;13075;55.682;37.564;2023-05-21T01:56:33;100122.06;;;20.23;100.00
25084;BME280;13075;55.682;37.564;2023-05-21T01:59:01;100116.09;;;19.93;100.00
25084;BME280;13075;55.682;37.564;2023-05-21T02:01:26;100117.56;;;19.67;100.00
25084;BME280;13075;55.682;37.564;2023-05-21T02:03:54;100119.56;;;19.88;100.00
25084;BME280;13075;55.682;37.564;2023-05-21T02:06:20;100121.69;;;19.70;100.00
25084;BME280;13075;55.682;37.564;2023-05-21T02:08:45;100117.56;;;19.67;100.00
25084;BME280;13075;55.682;37.564;2023-05-21T02:11:12;100110.19;;;19.79;100.00
25084;BME280;13075;55.682;37.564;2023-05-21T02:13:37;100110.09;;;19.91;100.00
25084;BME280;13075;55.682;37.564;2023-05-21T02:16:07;100107.00;;;19.26;100.00
25084;BME280;13075;55.682;37.564;2023-05-21T02:18:36;100120.88;;;20.03;100.00
25084;BME280;13075;55.682;37.564;2023-05-21T02:21:02;100113.88;;;20.07;100.00
25084;BME280;13075;55.682;37.564;2023-05-21T02:23:28;100121.66;;;19.53;100.00
25084;BME280;13075;55.682;37.564;2023-05-21T02:25:53;100113.13;;;20.11;100.00
25084;BME280;13075;55.682;37.564;2023-05-21T02:28:19;100107.47;;;19.96;100.00
25084;BME280;13075;55.682;37.564;2023-05-21T02:30:45;100110.16;;;20.29;100.00
25084;BME280;13075;55.682;37.564;2023-05-21T02:33:11;100102.50;;;19.93;100.00
25084;BME280;13075;55.682;37.564;2023-05-21T02:35:38;100113.69;;;19.80;100.00
25084;BME280;13075;55.682;37.564;2023-05-21T02:38:04;100114.78;;;19.79;100.00
25084;BME280;13075;55.682;37.564;2023-05-21T02:40:29;100119.72;;;19.99;100.00
25084;BME280;13075;55.682;37.564;2023-05-21T02:42:55;100115.53;;;19.46;100.00
25084;BME280;13075;55.682;37.564;2023-05-21T02:45:20;100112.16;;;19.84;100.00
25084;BME280;13075;55.682;37.564;2023-05-21T02:47:46;100110.66;;;20.10;100.00
25084;BME280;13075;55.682;37.564;2023-05-21T02:50:13;100111.06;;;19.85;100.00
25084;BME280;13075;55.682;37.564;2023-05-21T02:52:47;100129.44;;;20.11;100.00
25084;BME280;13075;55.682;37.564;2023-05-21T02:55:13;100124.28;;;18.34;100.00
25084;BME280;13075;55.682;37.564;2023-05-21T02:57:38;100124.50;;;18.79;100.00
25084;BME280;13075;55.682;37.564;2023-05-21T03:00:04;100127.19;;;19.30;100.00
25084;BME280;13075;55.682;37.564;2023-05-21T03:02:33;100123.25;;;19.66;100.00
25084;BME280;13075;55.682;37.564;2023-05-21T03:04:59;100118.66;;;19.83;100.00
25084;BME280;13075;55.682;37.564;2023-05-21T03:07:24;100127.78;;;19.94;100.00
25084;BME280;13075;55.682;37.564;2023-05-21T03:09:50;100116.19;;;19.81;100.00
25084;BME280;13075;55.682;37.564;2023-05-21T03:12:15;100111.38;;;20.22;100.00
25084;BME280;13075;55.682;37.564;2023-05-21T03:14:41;100108.41;;;19.40;100.00
25084;BME280;13075;55.682;37.564;2023-05-21T03:17:10;100110.41;;;19.78;100.00
25084;BME280;13075;55.682;37.564;2023-05-21T03:19:38;100121.81;;;19.47;100.00
25084;BME280;13075;55.682;37.564;2023-05-21T03:22:04;100118.91;;;19.81;100.00
25084;BME280;13075;55.682;37.564;2023-05-21T03:24:33;100121.69;;;20.03;100.00
25084;BME280;13075;55.682;37.564;2023-05-21T03:27:00;100126.63;;;19.73;100.00
25084;BME280;13075;55.682;37.564;2023-05-21T03:29:26;100123.16;;;19.61;100.00
25084;BME280;13075;55.682;37.564;2023-05-21T03:31:52;100121.69;;;20.03;100.00
25084;BME280;13075;55.682;37.564;2023-05-21T03:34:18;100117.00;;;20.15;100.00
25084;BME280;13075;55.682;37.564;2023-05-21T03:36:45;100119.91;;;19.92;100.00
25084;BME280;13075;55.682;37.564;2023-05-21T03:39:10;100122.22;;;20.00;100.00
25084;BME280;13075;55.682;37.564;2023-05-21T03:41:37;100125.97;;;19.99;100.00
25084;BME280;13075;55.682;37.564;2023-05-21T03:44:07;100124.25;;;19.93;100.00
25084;BME280;13075;55.682;37.564;2023-05-21T03:46:45;100122.72;;;19.12;100.00
25084;BME280;13075;55.682;37.564;2023-05-21T03:49:24;100121.63;;;19.81;100.00
25084;BME280;13075;55.682;37.564;2023-05-21T03:51:52;100133.13;;;19.44;100.00
25084;BME280;13075;55.682;37.564;2023-05-21T03:54:19;100125.38;;;19.80;100.00
25084;BME280;13075;55.682;37.564;2023-05-21T03:56:45;100124.50;;;19.92;100.00
25084;BME280;13075;55.682;37.564;2023-05-21T03:59:10;100127.88;;;20.15;100.00
25084;BME280;13075;55.682;37.564;2023-05-21T04:01:36;100112.53;;;19.92;100.00
25084;BME280;13075;55.682;37.564;2023-05-21T04:04:03;100122.47;;;19.54;100.00
25084;BME280;13075;55.682;37.564;2023-05-21T04:06:29;100111.81;;;19.80;100.00
25084;BME280;13075;55.682;37.564;2023-05-21T04:08:54;100126.31;;;19.86;100.00
25084;BME280;13075;55.682;37.564;2023-05-21T04:11:20;100117.25;;;19.80;100.00
25084;BME280;13075;55.682;37.564;2023-05-21T04:13:46;100124.38;;;19.70;100.00
25084;BME280;13075;55.682;37.564;2023-05-21T04:16:12;100126.84;;;19.55;100.00
25084;BME280;13075;55.682;37.564;2023-05-21T04:18:39;100119.16;;;19.97;100.00
25084;BME280;13075;55.682;37.564;2023-05-21T04:21:06;100122.69;;;19.97;100.00
25084;BME280;13075;55.682;37.564;2023-05-21T04:23:31;100127.72;;;20.38;100.00
25084;BME280;13075;55.682;37.564;2023-05-21T04:25:58;100125.88;;;19.77;100.00
25084;BME280;13075;55.682;37.564;2023-05-21T04:28:23;100130.91;;;19.69;100.00
25084;BME280;13075;55.682;37.564;2023-05-21T04:30:54;100125.56;;;20.07;100.00
25084;BME280;13075;55.682;37.564;2023-05-21T04:33:23;100121.53;;;20.10;100.00
25084;BME280;13075;55.682;37.564;2023-05-21T04:35:49;100123.28;;;19.54;100.00
25084;BME280;13075;55.682;37.564;2023-05-21T04:38:15;100120.78;;;20.14;100.00
25084;BME280;13075;55.682;37.564;2023-05-21T04:40:44;100125.66;;;20.29;100.00
25084;BME280;13075;55.682;37.564;2023-05-21T04:43:10;100123.31;;;19.87;100.00
25084;BME280;13075;55.682;37.564;2023-05-21T04:45:35;100123.16;;;19.61;100.00
25084;BME280;13075;55.682;37.564;2023-05-21T04:48:01;100134.06;;;19.49;100.00
25084;BME280;13075;55.682;37.564;2023-05-21T04:50:28;100123.81;;;19.11;100.00
25084;BME280;13075;55.682;37.564;2023-05-21T04:52:57;100127.09;;;19.13;100.00
25084;BME280;13075;55.682;37.564;2023-05-21T04:55:26;100132.41;;;19.20;100.00
25084;BME280;13075;55.682;37.564;2023-05-21T04:57:53;100126.88;;;19.88;100.00
25084;BME280;13075;55.682;37.564;2023-05-21T05:00:18;100128.53;;;19.89;100.00
25084;BME280;13075;55.682;37.564;2023-05-21T05:02:44;100139.88;;;20.52;100.00
25084;BME280;13075;55.682;37.564;2023-05-21T05:05:10;100130.38;;;20.55;100.00
25084;BME280;13075;55.682;37.564;2023-05-21T05:07:36;100130.16;;;20.78;100.00
25084;BME280;13075;55.682;37.564;2023-05-21T05:10:02;100124.28;;;20.86;100.00
25084;BME280;13075;55.682;37.564;2023-05-21T05:12:28;100131.06;;;20.84;100.00
25084;BME280;13075;55.682;37.564;2023-05-21T05:14:54;100132.06;;;20.39;100.00
25084;BME280;13075;55.682;37.564;2023-05-21T05:17:19;100137.34;;;20.29;100.00
25084;BME280;13075;55.682;37.564;2023-05-21T05:19:45;100134.22;;;20.04;100.00
25084;BME280;13075;55.682;37.564;2023-05-21T05:22:10;100135.09;;;19.93;100.00
25084;BME280;13075;55.682;37.564;2023-05-21T05:24:36;100130.25;;;19.95;100.00
25084;BME280;13075;55.682;37.564;2023-05-21T05:27:01;100134.13;;;20.32;100.00
25084;BME280;13075;55.682;37.564;2023-05-21T05:29:27;100132.00;;;20.34;100.00
25084;BME280;13075;55.682;37.564;2023-05-21T05:31:52;100136.66;;;20.22;100.00
25084;BME280;13075;55.682;37.564;2023-05-21T05:34:18;100136.19;;;21.02;97.68
25084;BME280;13075;55.682;37.564;2023-05-21T05:36:44;100143.38;;;21.08;95.32
25084;BME280;13075;55.682;37.564;2023-05-21T05:39:09;100139.59;;;20.92;96.38
25084;BME280;13075;55.682;37.564;2023-05-21T05:41:35;100143.88;;;21.53;90.59
25084;BME280;13075;55.682;37.564;2023-05-21T05:44:00;100140.81;;;21.77;88.53
25084;BME280;13075;55.682;37.564;2023-05-21T05:46:30;100139.19;;;21.49;88.89
25084;BME280;13075;55.682;37.564;2023-05-21T05:48:56;100145.97;;;20.81;90.43
25084;BME280;13075;55.682;37.564;2023-05-21T05:51:21;100144.44;;;20.69;91.62
25084;BME280;13075;55.682;37.564;2023-05-21T05:53:47;100147.78;;;20.54;87.60
25084;BME280;13075;55.682;37.564;2023-05-21T05:56:12;100158.19;;;20.40;90.64
25084;BME280;13075;55.682;37.564;2023-05-21T05:58:40;100152.66;;;21.34;87.51
25084;BME280;13075;55.682;37.564;2023-05-21T06:01:11;100159.25;;;20.78;90.87
25084;BME280;13075;55.682;37.564;2023-05-21T06:03:38;100159.41;;;20.49;94.61
25084;BME280;13075;55.682;37.564;2023-05-21T06:06:09;100155.34;;;20.52;93.59
25084;BME280;13075;55.682;37.564;2023-05-21T06:08:36;100156.44;;;20.89;91.16
25084;BME280;13075;55.682;37.564;2023-05-21T06:11:02;100165.44;;;21.33;87.83
25084;BME280;13075;55.682;37.564;2023-05-21T06:13:27;100162.31;;;21.25;87.63
25084;BME280;13075;55.682;37.564;2023-05-21T06:15:53;100153.03;;;21.47;86.25
25084;BME280;13075;55.682;37.564;2023-05-21T06:18:18;100157.34;;;20.78;90.40
25084;BME280;13075;55.682;37.564;2023-05-21T06:20:44;100150.28;;;20.99;90.10
25084;BME280;13075;55.682;37.564;2023-05-21T06:23:09;100160.78;;;20.52;92.43
25084;BME280;13075;55.682;37.564;2023-05-21T06:25:35;100153.81;;;20.39;91.64
25084;BME280;13075;55.682;37.564;2023-05-21T06:28:02;100155.13;;;20.37;93.60
25084;BME280;13075;55.682;37.564;2023-05-21T06:30:29;100156.25;;;19.91;98.42
25084;BME280;13075;55.682;37.564;2023-05-21T06:32:54;100158.63;;;20.71;93.38
25084;BME280;13075;55.682;37.564;2023-05-21T06:35:20;100161.91;;;21.11;90.54
25084;BME280;13075;55.682;37.564;2023-05-21T06:37:46;100166.28;;;20.74;86.95
25084;BME280;13075;55.682;37.564;2023-05-21T06:40:13;100158.09;;;20.90;85.43
25084;BME280;13075;55.682;37.564;2023-05-21T06:42:39;100154.81;;;21.10;83.05
25084;BME280;13075;55.682;37.564;2023-05-21T06:45:23;100147.78;;;21.62;79.50
25084;BME280;13075;55.682;37.564;2023-05-21T06:47:51;100137.13;;;25.15;63.00
25084;BME280;13075;55.682;37.564;2023-05-21T06:50:17;100141.78;;;25.14;56.76
25084;BME280;13075;55.682;37.564;2023-05-21T06:52:43;100139.41;;;21.96;64.21
25084;BME280;13075;55.682;37.564;2023-05-21T06:55:08;100148.13;;;22.29;69.11
25084;BME280;13075;55.682;37.564;2023-05-21T06:57:57;100145.59;;;22.23;69.79
25084;BME280;13075;55.682;37.564;2023-05-21T07:00:22;100157.03;;;21.13;73.74
25084;BME280;13075;55.682;37.564;2023-05-21T07:02:48;100156.56;;;21.69;72.56
25084;BME280;13075;55.682;37.564;2023-05-21T07:05:13;100146.09;;;21.35;71.63
25084;BME280;13075;55.682;37.564;2023-05-21T07:07:39;100155.88;;;20.49;79.21
25084;BME280;13075;55.682;37.564;2023-05-21T07:10:05;100145.34;;;21.66;72.90
25084;BME280;13075;55.682;37.564;2023-05-21T07:12:31;100156.69;;;21.58;71.54
25084;BME280;13075;55.682;37.564;2023-05-21T07:14:56;100143.19;;;22.26;69.67
25084;BME280;13075;55.682;37.564;2023-05-21T07:17:22;100160.00;;;21.87;67.91
25084;BME280;13075;55.682;37.564;2023-05-21T07:19:48;100147.56;;;21.69;70.65
25084;BME280;13075;55.682;37.564;2023-05-21T07:22:13;100151.00;;;22.18;67.64
25084;BME280;13075;55.682;37.564;2023-05-21T07:24:39;100146.31;;;22.45;65.87
25084;BME280;13075;55.682;37.564;2023-05-21T07:27:04;100152.19;;;22.27;66.26
25084;BME280;13075;55.682;37.564;2023-05-21T07:29:34;100150.50;;;23.05;64.61
25084;BME280;13075;55.682;37.564;2023-05-21T07:31:59;100148.94;;;22.35;66.05
25084;BME280;13075;55.682;37.564;2023-05-21T07:34:25;100153.03;;;22.69;65.40
25084;BME280;13075;55.682;37.564;2023-05-21T07:36:51;100149.88;;;22.51;65.99
25084;BME280;13075;55.682;37.564;2023-05-21T07:39:17;100147.34;;;22.76;64.99
25084;BME280;13075;55.682;37.564;2023-05-21T07:41:42;100151.94;;;21.70;68.00
25084;BME280;13075;55.682;37.564;2023-05-21T07:44:08;100155.03;;;22.10;66.20
25084;BME280;13075;55.682;37.564;2023-05-21T07:46:38;100144.63;;;22.39;64.63
25084;BME280;13075;55.682;37.564;2023-05-21T07:49:04;100148.38;;;22.28;64.56
25084;BME280;13075;55.682;37.564;2023-05-21T07:51:29;100133.16;;;31.77;41.99
25084;BME280;13075;55.682;37.564;2023-05-21T07:53:55;100135.47;;;33.60;35.56
25084;BME280;13075;55.682;37.564;2023-05-21T07:56:28;100129.72;;;35.48;30.79
25084;BME280;13075;55.682;37.564;2023-05-21T07:58:54;100130.69;;;33.61;32.23
25084;BME280;13075;55.682;37.564;2023-05-21T08:01:21;100133.75;;;28.87;38.72
25084;BME280;13075;55.682;37.564;2023-05-21T08:03:48;100131.59;;;27.73;40.90
25084;BME280;13075;55.682;37.564;2023-05-21T08:06:13;100140.88;;;26.69;43.26
25084;BME280;13075;55.682;37.564;2023-05-21T08:08:39;100143.97;;;25.12;46.52
25084;BME280;13075;55.682;37.564;2023-05-21T08:11:05;100137.91;;;24.31;48.61
25084;BME280;13075;55.682;37.564;2023-05-21T08:13:32;100147.69;;;23.67;51.58
25084;BME280;13075;55.682;37.564;2023-05-21T08:15:57;100141.41;;;23.71;51.85
25084;BME280;13075;55.682;37.564;2023-05-21T08:18:24;100142.50;;;24.05;52.29
25084;BME280;13075;55.682;37.564;2023-05-21T08:20:52;100150.34;;;23.41;52.95
25084;BME280;13075;55.682;37.564;2023-05-21T08:23:19;100146.97;;;23.14;53.92
25084;BME280;13075;55.682;37.564;2023-05-21T08:25:49;100137.22;;;22.71;54.04
25084;BME280;13075;55.682;37.564;2023-05-21T08:28:15;100141.13;;;23.73;52.19
25084;BME280;13075;55.682;37.564;2023-05-21T08:30:41;100140.19;;;23.32;52.41
25084;BME280;13075;55.682;37.564;2023-05-21T08:33:06;100140.72;;;23.24;51.91
25084;BME280;13075;55.682;37.564;2023-05-21T08:35:32;100147.09;;;22.82;54.63
25084;BME280;13075;55.682;37.564;2023-05-21T08:38:15;100141.84;;;23.33;52.58
25084;BME280;13075;55.682;37.564;2023-05-21T08:40:57;100144.16;;;22.89;53.66
25084;BME280;13075;55.682;37.564;2023-05-21T08:43:23;100145.34;;;23.23;52.40
25084;BME280;13075;55.682;37.564;2023-05-21T08:45:52;100148.84;;;23.04;52.02
25084;BME280;13075;55.682;37.564;2023-05-21T08:48:19;100146.06;;;22.93;52.66
25084;BME280;13075;55.682;37.564;2023-05-21T08:50:46;100141.94;;;23.63;52.29
25084;BME280;13075;55.682;37.564;2023-05-21T08:53:17;100143.13;;;23.10;52.43
25084;BME280;13075;55.682;37.564;2023-05-21T08:55:43;100142.09;;;23.31;51.62
25084;BME280;13075;55.682;37.564;2023-05-21T08:58:09;100139.66;;;23.30;50.97
25084;BME280;13075;55.682;37.564;2023-05-21T09:00:35;100153.41;;;22.88;51.77
25084;BME280;13075;55.682;37.564;2023-05-21T09:03:03;100150.56;;;23.30;52.09
25084;BME280;13075;55.682;37.564;2023-05-21T09:05:41;100146.34;;;23.84;50.65
25084;BME280;13075;55.682;37.564;2023-05-21T09:08:17;100144.16;;;23.71;50.49
25084;BME280;13075;55.682;37.564;2023-05-21T09:11:15;100137.03;;;23.75;50.82
25084;BME280;13075;55.682;37.564;2023-05-21T09:13:47;100151.53;;;23.96;49.36
25084;BME280;13075;55.682;37.564;2023-05-21T09:16:21;100143.31;;;23.61;49.36
25084;BME280;13075;55.682;37.564;2023-05-21T09:18:47;100142.22;;;23.67;48.79
25084;BME280;13075;55.682;37.564;2023-05-21T09:21:25;100151.41;;;23.35;49.70
25084;BME280;13075;55.682;37.564;2023-05-21T09:23:56;100148.50;;;23.82;48.60
25084;BME280;13075;55.682;37.564;2023-05-21T09:26:23;100147.41;;;23.78;49.32
25084;BME280;13075;55.682;37.564;2023-05-21T09:28:55;100154.59;;;24.09;48.75
25084;BME280;13075;55.682;37.564;2023-05-21T09:31:24;100156.25;;;23.18;48.95
25084;BME280;13075;55.682;37.564;2023-05-21T09:33:51;100162.16;;;23.67;48.86
25084;BME280;13075;55.682;37.564;2023-05-21T09:36:19;100162.97;;;23.63;48.77
25084;BME280;13075;55.682;37.564;2023-05-21T09:38:45;100163.75;;;22.44;49.74
25084;BME280;13075;55.682;37.564;2023-05-21T09:41:12;100166.78;;;22.94;48.83
25084;BME280;13075;55.682;37.564;2023-05-21T09:43:40;100170.72;;;23.19;47.85
25084;BME280;13075;55.682;37.564;2023-05-21T09:46:05;100167.22;;;23.33;48.47
25084;BME280;13075;55.682;37.564;2023-05-21T09:51:13;100163.56;;;22.19;49.92
25084;BME280;13075;55.682;37.564;2023-05-21T09:56:08;100174.53;;;21.70;51.28
25084;BME280;13075;55.682;37.564;2023-05-21T09:58:34;100166.28;;;22.56;49.10
25084;BME280;13075;55.682;37.564;2023-05-21T10:00:59;100165.13;;;23.45;47.32
25084;BME280;13075;55.682;37.564;2023-05-21T10:03:25;100167.94;;;23.04;48.50
25084;BME280;13075;55.682;37.564;2023-05-21T10:05:52;100171.16;;;22.54;48.81
25084;BME280;13075;55.682;37.564;2023-05-21T10:08:18;100171.00;;;22.28;49.80
25084;BME280;13075;55.682;37.564;2023-05-21T10:10:46;100173.03;;;23.42;48.58
25084;BME280;13075;55.682;37.564;2023-05-21T10:13:13;100166.03;;;23.91;47.33
25084;BME280;13075;55.682;37.564;2023-05-21T10:15:49;100165.84;;;23.31;47.50
25084;BME280;13075;55.682;37.564;2023-05-21T10:18:17;100172.06;;;24.44;47.24
25084;BME280;13075;55.682;37.564;2023-05-21T10:20:43;100171.97;;;24.99;45.94
25084;BME280;13075;55.682;37.564;2023-05-21T10:23:08;100166.00;;;24.82;46.47
25084;BME280;13075;55.682;37.564;2023-05-21T10:25:34;100175.66;;;25.33;45.71
25084;BME280;13075;55.682;37.564;2023-05-21T10:28:00;100165.38;;;25.64;44.40
25084;BME280;13075;55.682;37.564;2023-05-21T10:30:25;100166.03;;;24.47;46.23
25084;BME280;13075;55.682;37.564;2023-05-21T10:32:51;100169.72;;;25.11;46.85
25084;BME280;13075;55.682;37.564;2023-05-21T10:35:19;100160.50;;;24.77;45.28
25084;BME280;13075;55.682;37.564;2023-05-21T10:37:45;100159.03;;;25.15;44.29
25084;BME280;13075;55.682;37.564;2023-05-21T10:40:11;100164.69;;;25.33;44.04
25084;BME280;13075;55.682;37.564;2023-05-21T10:47:57;100165.16;;;24.76;44.95
25084;BME280;13075;55.682;37.564;2023-05-21T10:53:24;100164.66;;;24.04;46.32
25084;BME280;13075;55.682;37.564;2023-05-21T11:00:59;100164.69;;;24.24;46.26
25084;BME280;13075;55.682;37.564;2023-05-21T11:03:26;100160.56;;;24.32;45.67
25084;BME280;13075;55.682;37.564;2023-05-21T11:05:53;100155.41;;;24.30;45.16
25084;BME280;13075;55.682;37.564;2023-05-21T11:08:23;100158.34;;;24.79;44.95
25084;BME280;13075;55.682;37.564;2023-05-21T11:10:55;100163.34;;;25.31;44.94
25084;BME280;13075;55.682;37.564;2023-05-21T11:13:25;100163.88;;;25.33;44.07
25084;BME280;13075;55.682;37.564;2023-05-21T11:19:14;100159.03;;;26.08;43.92
25084;BME280;13075;55.682;37.564;2023-05-21T11:21:12;100156.53;;;25.23;43.91
25084;BME280;13075;55.682;37.564;2023-05-21T11:23:54;100158.06;;;25.45;43.56
25084;BME280;13075;55.682;37.564;2023-05-21T11:26:23;100163.06;;;25.81;43.44
25084;BME280;13075;55.682;37.564;2023-05-21T11:31:31;100159.63;;;25.61;42.58
25084;BME280;13075;55.682;37.564;2023-05-21T11:36:47;100152.91;;;25.82;43.58
25084;BME280;13075;55.682;37.564;2023-05-21T11:39:14;100156.94;;;25.51;43.31
25084;BME280;13075;55.682;37.564;2023-05-21T11:44:16;100172.69;;;25.20;42.79
25084;BME280;13075;55.682;37.564;2023-05-21T11:46:41;100163.28;;;24.67;43.34
25084;BME280;13075;55.682;37.564;2023-05-21T11:49:07;100167.06;;;24.76;43.26
25084;BME280;13075;55.682;37.564;2023-05-21T11:51:33;100167.09;;;24.71;42.67
25084;BME280;13075;55.682;37.564;2023-05-21T11:53:58;100156.19;;;24.51;43.52
25084;BME280;13075;55.682;37.564;2023-05-21T11:56:25;100165.94;;;24.97;43.77
25084;BME280;13075;55.682;37.564;2023-05-21T11:58:52;100168.66;;;25.61;43.15
25084;BME280;13075;55.682;37.564;2023-05-21T12:01:25;100166.09;;;25.31;43.53
25084;BME280;13075;55.682;37.564;2023-05-21T12:03:50;100167.66;;;25.52;43.43
25084;BME280;13075;55.682;37.564;2023-05-21T12:06:16;100168.78;;;24.32;45.02
25084;BME280;13075;55.682;37.564;2023-05-21T12:08:42;100162.16;;;24.68;44.92
25084;BME280;13075;55.682;37.564;2023-05-21T12:11:09;100161.00;;;24.99;45.42
25084;BME280;13075;55.682;37.564;2023-05-21T12:13:35;100168.53;;;24.28;46.48
25084;BME280;13075;55.682;37.564;2023-05-21T12:16:01;100168.75;;;24.67;45.77
25084;BME280;13075;55.682;37.564;2023-05-21T12:18:26;100180.03;;;24.15;46.42
25084;BME280;13075;55.682;37.564;2023-05-21T12:20:52;100180.53;;;24.42;47.46
25084;BME280;13075;55.682;37.564;2023-05-21T12:23:18;100177.00;;;24.27;48.11
25084;BME280;13075;55.682;37.564;2023-05-21T12:25:44;100181.94;;;24.14;48.92
25084;BME280;13075;55.682;37.564;2023-05-21T12:28:10;100182.66;;;23.70;48.72
25084;BME280;13075;55.682;37.564;2023-05-21T12:30:36;100176.63;;;23.63;49.49
25084;BME280;13075;55.682;37.564;2023-05-21T12:33:01;100190.00;;;23.64;49.66
25084;BME280;13075;55.682;37.564;2023-05-21T12:35:28;100179.72;;;24.16;48.52
25084;BME280;13075;55.682;37.564;2023-05-21T12:37:54;100183.22;;;23.67;49.10
25084;BME280;13075;55.682;37.564;2023-05-21T12:40:20;100188.44;;;23.98;48.76
25084;BME280;13075;55.682;37.564;2023-05-21T12:42:46;100188.06;;;23.49;49.78
25084;BME280;13075;55.682;37.564;2023-05-21T12:45:11;100185.19;;;23.09;50.68
25084;BME280;13075;55.682;37.564;2023-05-21T12:47:37;100190.34;;;23.11;50.65
25084;BME280;13075;55.682;37.564;2023-05-21T12:50:03;100190.34;;;23.88;50.39
25084;BME280;13075;55.682;37.564;2023-05-21T12:52:32;100181.03;;;23.74;49.96
25084;BME280;13075;55.682;37.564;2023-05-21T12:54:57;100180.25;;;23.06;50.00
25084;BME280;13075;55.682;37.564;2023-05-21T12:59:58;100175.56;;;23.79;48.74
25084;BME280;13075;55.682;37.564;2023-05-21T13:02:25;100177.44;;;23.53;49.06
25084;BME280;13075;55.682;37.564;2023-05-21T13:04:58;100175.06;;;23.92;48.48
25084;BME280;13075;55.682;37.564;2023-05-21T13:07:24;100176.13;;;23.91;48.78